createdAt,value
2022-10-06T00:01:22.077Z,101935.03
2022-10-06T00:03:54.716Z,101929.41
2022-10-06T00:06:27.671Z,101922.09
2022-10-06T00:09:01.179Z,101932.56
2022-10-06T00:11:28.936Z,101934.59
2022-10-06T00:13:58.672Z,101928.13
2022-10-06T00:16:29.390Z,101925.28
2022-10-06T00:18:59.367Z,101918.00
2022-10-06T00:21:29.376Z,101923.66
2022-10-06T00:24:01.665Z,101920.03
2022-10-06T00:26:34.526Z,101928.03
2022-10-06T00:29:08.309Z,101926.75
2022-10-06T00:31:39.373Z,101921.09
2022-10-06T00:34:13.203Z,101920.28
2022-10-06T00:36:43.925Z,101917.47
2022-10-06T00:39:11.582Z,101930.38
2022-10-06T00:41:47.594Z,101914.63
2022-10-06T00:44:21.541Z,101920.28
2022-10-06T00:46:56.420Z,101916.97
2022-10-06T00:49:33.861Z,101925.00
2022-10-06T00:52:09.044Z,101921.38
2022-10-06T00:54:41.486Z,101919.72
2022-10-06T00:57:15.250Z,101914.06
2022-10-06T00:59:46.641Z,101911.59
2022-10-06T01:02:22.990Z,101920.09
2022-10-06T01:05:03.541Z,101923.34
2022-10-06T01:07:35.530Z,101923.94
2022-10-06T01:10:10.687Z,101917.34
2022-10-06T01:12:49.445Z,101924.88
2022-10-06T01:15:21.530Z,101926.78
2022-10-06T01:18:02.282Z,101925.84
2022-10-06T01:20:34.515Z,101924.06
2022-10-06T01:23:06.770Z,101914.19
2022-10-06T01:25:40.030Z,101911.59
2022-10-06T01:28:17.571Z,101914.97
2022-10-06T01:30:50.945Z,101918.78
2022-10-06T01:33:24.329Z,101922.84
2022-10-06T01:35:55.977Z,101920.19
2022-10-06T01:38:27.074Z,101919.44
2022-10-06T01:41:07.793Z,101917.22
2022-10-06T01:43:38.462Z,101914.50
2022-10-06T01:46:09.609Z,101920.38
2022-10-06T01:48:40.262Z,101915.19
2022-10-06T01:51:16.742Z,101910.63
2022-10-06T01:53:52.628Z,101910.63
2022-10-06T01:56:33.030Z,101905.84
2022-10-06T01:59:06.520Z,101916.13
2022-10-06T02:01:37.565Z,101909.47
2022-10-06T02:04:08.352Z,101913.28
2022-10-06T02:06:44.505Z,101908.44
2022-10-06T02:09:12.757Z,101903.66
2022-10-06T02:11:48.818Z,101902.03
2022-10-06T02:14:20.372Z,101903.25
2022-10-06T02:16:56.668Z,101902.91
2022-10-06T02:19:32.906Z,101902.72
2022-10-06T02:22:06.085Z,101897.81
2022-10-06T02:24:39.267Z,101896.28
2022-10-06T02:27:12.301Z,101898.28
2022-10-06T02:29:45.225Z,101899.81
2022-10-06T02:32:16.470Z,101901.97
2022-10-06T02:34:45.704Z,101893.25
2022-10-06T02:37:16.017Z,101904.75
2022-10-06T02:39:43.680Z,101899.28
2022-10-06T02:42:16.099Z,101900.03
2022-10-06T02:44:49.775Z,101900.59
2022-10-06T02:47:22.278Z,101902.53
2022-10-06T02:49:59.558Z,101900.75
2022-10-06T02:52:35.232Z,101906.69
2022-10-06T02:55:11.986Z,101904.59
2022-10-06T02:57:42.963Z,101909.06
2022-10-06T03:00:14.931Z,101901.31
2022-10-06T03:02:50.400Z,101897.19
2022-10-06T03:05:19.234Z,101903.16
2022-10-06T03:07:47.956Z,101899.84
2022-10-06T03:10:18.368Z,101905.06
2022-10-06T03:12:49.010Z,101898.56
2022-10-06T03:15:19.747Z,101902.59
2022-10-06T03:17:52.491Z,101900.16
2022-10-06T03:20:27.783Z,101904.13
2022-10-06T03:23:01.574Z,101910.25
2022-10-06T03:25:29.515Z,101907.78
2022-10-06T03:27:59.724Z,101915.72
2022-10-06T03:30:41.356Z,101906.78
2022-10-06T03:33:11.891Z,101905.97
2022-10-06T03:35:45.442Z,101902.69
2022-10-06T03:38:15.588Z,101913.53
2022-10-06T03:40:45.544Z,101911.53
2022-10-06T03:43:18.158Z,101909.03
2022-10-06T03:45:57.683Z,101911.06
2022-10-06T03:48:34.233Z,101914.59
2022-10-06T03:51:14.749Z,101906.59
2022-10-06T03:53:52.659Z,101914.50
2022-10-06T03:56:30.153Z,101915.72
2022-10-06T03:59:18.024Z,101920.53
2022-10-06T04:01:49.607Z,101909.16
2022-10-06T04:04:29.741Z,101917.16
2022-10-06T04:07:09.045Z,101910.69
2022-10-06T04:09:42.053Z,101914.69
2022-10-06T04:12:18.522Z,101909.75
2022-10-06T04:14:46.796Z,101915.88
2022-10-06T04:17:25.845Z,101909.88
2022-10-06T04:19:53.485Z,101916.25
2022-10-06T04:22:26.313Z,101916.25
2022-10-06T04:24:56.298Z,101918.22
2022-10-06T04:27:32.674Z,101923.34
2022-10-06T04:30:18.213Z,101925.34
2022-10-06T04:32:49.144Z,101930.03
2022-10-06T04:35:23.365Z,101921.13
2022-10-06T04:37:52.003Z,101926.78
2022-10-06T04:40:22.017Z,101930.03
2022-10-06T04:42:52.707Z,101934.88
2022-10-06T04:45:28.579Z,101930.41
2022-10-06T04:47:58.932Z,101938.88
2022-10-06T04:50:28.661Z,101942.91
2022-10-06T04:53:10.969Z,101944.75
2022-10-06T04:55:41.430Z,101941.47
2022-10-06T04:58:12.178Z,101939.81
2022-10-06T05:00:42.613Z,101941.00
2022-10-06T05:03:13.605Z,101948.19
2022-10-06T05:05:47.345Z,101936.28
2022-10-06T05:08:19.850Z,101944.75
2022-10-06T05:10:49.058Z,101947.84
2022-10-06T05:13:16.812Z,101948.19
2022-10-06T05:15:44.538Z,101959.47
2022-10-06T05:18:17.858Z,101955.84
2022-10-06T05:21:14.945Z,101952.09
2022-10-06T05:23:46.157Z,101955.84
2022-10-06T05:26:22.084Z,101960.19
2022-10-06T05:28:53.591Z,101963.00
2022-10-06T05:31:31.627Z,101963.47
2022-10-06T05:34:05.441Z,101969.47
2022-10-06T05:36:36.292Z,101966.78
2022-10-06T05:39:06.741Z,101973.22
2022-10-06T05:41:45.719Z,101972.03
2022-10-06T05:44:22.616Z,101972.75
2022-10-06T05:46:52.973Z,101984.41
2022-10-06T05:49:25.857Z,101977.47
2022-10-06T05:51:57.642Z,101987.09
2022-10-06T05:54:32.207Z,101982.66
2022-10-06T05:57:04.455Z,101987.09
2022-10-06T05:59:44.520Z,101984.66
2022-10-06T06:02:18.377Z,101984.75
2022-10-06T06:04:51.633Z,101986.06
2022-10-06T06:07:25.140Z,101983.69
2022-10-06T06:10:01.916Z,101980.97
2022-10-06T06:12:33.667Z,101981.41
2022-10-06T06:15:32.705Z,101991.56
2022-10-06T06:18:13.092Z,101991.19
2022-10-06T06:20:43.842Z,101996.81
2022-10-06T06:23:14.843Z,101991.56
2022-10-06T06:25:53.763Z,101993.19
2022-10-06T06:28:31.769Z,101998.72
2022-10-06T06:31:20.155Z,101998.91
2022-10-06T06:34:01.151Z,102006.03
2022-10-06T06:36:41.863Z,102007.41
2022-10-06T06:39:20.079Z,102007.94
2022-10-06T06:41:55.102Z,102010.06
2022-10-06T06:44:44.180Z,102011.72
2022-10-06T06:47:33.781Z,102015.94
2022-10-06T06:50:14.144Z,102025.94
2022-10-06T06:52:51.409Z,102019.28
2022-10-06T06:55:29.705Z,102020.22
2022-10-06T06:58:03.385Z,102026.31
2022-10-06T07:00:36.314Z,102027.25
2022-10-06T07:03:07.517Z,102037.91
2022-10-06T07:05:45.374Z,102040.34
2022-10-06T07:08:31.170Z,102041.19
2022-10-06T07:11:18.651Z,102037.75
2022-10-06T07:14:04.273Z,102041.50
2022-10-06T07:16:53.864Z,102037.94
2022-10-06T07:19:46.203Z,102043.59
2022-10-06T07:22:41.186Z,102039.59
2022-10-06T07:25:38.237Z,102047.06
2022-10-06T07:28:17.329Z,102054.38
2022-10-06T07:30:54.961Z,102054.44
2022-10-06T07:33:35.852Z,102062.13
2022-10-06T07:36:32.519Z,102059.81
2022-10-06T07:39:00.630Z,102058.66
2022-10-06T07:41:38.154Z,102058.19
2022-10-06T07:44:18.409Z,102064.38
2022-10-06T07:46:59.694Z,102063.75
2022-10-06T07:49:58.475Z,102057.06
2022-10-06T07:52:37.373Z,102058.09
2022-10-06T07:55:09.427Z,102068.59
2022-10-06T07:57:50.961Z,102061.66
2022-10-06T08:00:22.744Z,102073.78
2022-10-06T08:02:55.167Z,102067.47
2022-10-06T08:05:26.350Z,102072.50
2022-10-06T08:07:57.176Z,102076.69
2022-10-06T08:10:28.179Z,102078.31
2022-10-06T08:13:07.872Z,102075.94
2022-10-06T08:15:44.393Z,102082.44
2022-10-06T08:18:41.059Z,102077.31
2022-10-06T08:21:24.644Z,102088.81
2022-10-06T08:24:07.818Z,102083.31
2022-10-06T08:26:52.666Z,102088.97
2022-10-06T08:29:27.743Z,102081.50
2022-10-06T08:31:59.635Z,102081.16
2022-10-06T08:34:38.369Z,102081.25
2022-10-06T08:37:19.829Z,102093.75
2022-10-06T08:39:57.477Z,102089.47
2022-10-06T08:42:39.727Z,102098.03
2022-10-06T08:45:29.118Z,102096.75
2022-10-06T08:48:13.401Z,102101.66
2022-10-06T08:51:03.960Z,102093.19
2022-10-06T08:53:55.535Z,102097.38
2022-10-06T08:56:52.951Z,102094.91
2022-10-06T08:59:27.310Z,102096.28
2022-10-06T09:02:00.407Z,102099.94
2022-10-06T09:04:42.606Z,102101.09
2022-10-06T09:07:22.452Z,102099.94
2022-10-06T09:10:11.942Z,102096.78
2022-10-06T09:13:09.044Z,102094.97
2022-10-06T09:16:08.289Z,102094.03
2022-10-06T09:19:07.849Z,102098.16
2022-10-06T09:21:53.283Z,102097.47
2022-10-06T09:24:36.519Z,102096.00
2022-10-06T09:27:22.374Z,102101.59
2022-10-06T09:30:01.942Z,102099.88
2022-10-06T09:32:39.997Z,102101.97
2022-10-06T09:35:24.416Z,102096.00
2022-10-06T09:38:09.452Z,102097.75
2022-10-06T09:40:53.840Z,102101.16
2022-10-06T09:43:31.670Z,102101.09
2022-10-06T09:46:23.675Z,102098.19
2022-10-06T09:49:17.854Z,102096.91
2022-10-06T09:51:58.817Z,102104.31
2022-10-06T09:54:35.288Z,102098.03
2022-10-06T09:57:34.504Z,102093.94
2022-10-06T10:00:37.453Z,102104.91
2022-10-06T10:03:13.340Z,102097.56
2022-10-06T10:06:02.810Z,102096.53
2022-10-06T10:08:37.845Z,102096.97
2022-10-06T10:11:46.453Z,102085.97
2022-10-06T10:14:21.942Z,102093.09
2022-10-06T10:16:56.046Z,102080.66
2022-10-06T10:19:43.712Z,102080.00
2022-10-06T10:22:48.193Z,102070.31
2022-10-06T10:26:03.257Z,102085.00
2022-10-06T10:29:09.723Z,102081.63
2022-10-06T10:32:08.231Z,102078.53
2022-10-06T10:35:01.261Z,102073.25
2022-10-06T10:37:47.797Z,102082.13
2022-10-06T10:40:48.153Z,102075.72
2022-10-06T10:43:32.562Z,102074.88
2022-10-06T10:46:19.485Z,102068.47
2022-10-06T10:49:11.960Z,102070.22
2022-10-06T10:51:46.118Z,102067.28
2022-10-06T10:54:36.635Z,102068.63
2022-10-06T10:57:18.875Z,102076.31
2022-10-06T11:00:06.886Z,102075.41
2022-10-06T11:02:45.930Z,102075.78
2022-10-06T11:05:30.993Z,102075.88
2022-10-06T11:08:27.137Z,102077.97
2022-10-06T11:11:09.824Z,102074.75
2022-10-06T11:13:53.521Z,102067.50
2022-10-06T11:16:44.516Z,102064.97
2022-10-06T11:19:43.404Z,102063.13
2022-10-06T11:22:42.908Z,102058.28
2022-10-06T11:25:47.821Z,102055.72
2022-10-06T11:28:18.229Z,102056.53
2022-10-06T11:31:11.543Z,102053.28
2022-10-06T11:33:54.509Z,102054.97
2022-10-06T11:36:51.741Z,102042.53
2022-10-06T11:39:38.288Z,102045.56
2022-10-06T11:42:27.696Z,102042.03
2022-10-06T11:45:06.087Z,102038.06
2022-10-06T11:48:11.045Z,102049.09
2022-10-06T11:50:45.381Z,102042.34
2022-10-06T11:53:39.885Z,102036.41
2022-10-06T11:56:23.876Z,102032.50
2022-10-06T11:58:54.583Z,102027.81
2022-10-06T12:01:47.868Z,102034.75
2022-10-06T12:04:26.530Z,102022.97
2022-10-06T12:06:59.123Z,102020.44
2022-10-06T12:09:32.482Z,102019.44
2022-10-06T12:12:26.605Z,102018.47
2022-10-06T12:17:05.667Z,102010.56
2022-10-06T12:18:04.771Z,102002.31
2022-10-06T12:20:54.108Z,102000.47
2022-10-06T12:23:34.927Z,101999.25
2022-10-06T12:26:24.205Z,101998.38
2022-10-06T12:29:03.419Z,102001.47
2022-10-06T12:32:04.830Z,101989.75
2022-10-06T12:34:44.158Z,101990.47
2022-10-06T12:37:32.574Z,101981.38
2022-10-06T12:40:41.173Z,101979.75
2022-10-06T12:43:18.253Z,101984.09
2022-10-06T12:46:16.399Z,101984.56
2022-10-06T12:49:01.521Z,101988.81
2022-10-06T12:51:34.856Z,101986.25
2022-10-06T12:54:09.116Z,101986.13
2022-10-06T12:56:40.571Z,101987.53
2022-10-06T12:59:23.726Z,101985.66
2022-10-06T13:01:59.131Z,101990.66
2022-10-06T13:04:36.611Z,101983.22
2022-10-06T13:07:26.276Z,101983.25
2022-10-06T13:10:15.785Z,101982.00
2022-10-06T13:12:47.735Z,101978.72
2022-10-06T13:15:23.469Z,101989.00
2022-10-06T13:18:15.814Z,101976.63
2022-10-06T13:20:51.930Z,101983.31
2022-10-06T13:23:38.480Z,101983.69
2022-10-06T13:26:29.687Z,101979.94
2022-10-06T13:29:07.766Z,101983.69
2022-10-06T13:31:36.840Z,101984.00
2022-10-06T13:34:35.027Z,101980.13
2022-10-06T13:37:05.755Z,101977.03
2022-10-06T13:39:33.987Z,101974.31
2022-10-06T13:42:22.315Z,101971.03
2022-10-06T13:45:01.411Z,101988.13
2022-10-06T13:47:35.287Z,101977.34
2022-10-06T13:50:19.961Z,101977.38
2022-10-06T13:52:49.004Z,101982.72
2022-10-06T13:55:21.535Z,101979.31
2022-10-06T13:58:05.173Z,101981.00
2022-10-06T14:01:00.696Z,101971.16
2022-10-06T14:03:37.394Z,101969.09
2022-10-06T14:06:26.673Z,101975.56
2022-10-06T14:08:58.138Z,101973.16
2022-10-06T14:11:31.123Z,101966.88
2022-10-06T14:14:05.910Z,101961.22
2022-10-06T14:16:37.154Z,101962.13
2022-10-06T14:19:26.585Z,101967.63
2022-10-06T14:21:54.684Z,101970.50
2022-10-06T14:24:28.549Z,101964.09
2022-10-06T14:27:02.476Z,101973.84
2022-10-06T14:29:34.161Z,101971.34
2022-10-06T14:32:15.827Z,101965.34
2022-10-06T14:34:48.468Z,101974.34
2022-10-06T14:37:24.375Z,101964.44
2022-10-06T14:39:56.565Z,101967.06
2022-10-06T14:42:30.567Z,101972.94
2022-10-06T14:45:03.017Z,101967.22
2022-10-06T14:47:33.886Z,101970.16
2022-10-06T14:50:07.693Z,101978.44
2022-10-06T14:52:41.675Z,101978.28
2022-10-06T14:55:20.594Z,101973.63
2022-10-06T14:57:51.277Z,101979.16
2022-10-06T15:00:28.498Z,101972.66
2022-10-06T15:03:04.568Z,101979.97
2022-10-06T15:06:06.909Z,101970.94
2022-10-06T15:08:45.636Z,101978.56
2022-10-06T15:11:21.786Z,101964.69
2022-10-06T15:13:55.646Z,101980.84
2022-10-06T15:16:37.752Z,101978.34
2022-10-06T15:19:12.366Z,101977.91
2022-10-06T15:21:52.620Z,101973.75
2022-10-06T15:24:26.385Z,101975.59
2022-10-06T15:27:24.689Z,101971.88
2022-10-06T15:29:53.064Z,101981.94
2022-10-06T15:32:23.953Z,101977.88
2022-10-06T15:34:52.580Z,101973.78
2022-10-06T15:37:25.343Z,101978.00
2022-10-06T15:39:59.439Z,101970.50
2022-10-06T15:42:27.459Z,101968.72
2022-10-06T15:45:02.825Z,101975.09
2022-10-06T15:47:40.235Z,101974.59
2022-10-06T15:50:18.545Z,101977.63
2022-10-06T15:52:55.375Z,101982.78
2022-10-06T15:55:30.593Z,101982.31
2022-10-06T15:58:01.799Z,101985.47
2022-10-06T16:00:35.595Z,101980.06
2022-10-06T16:03:22.902Z,101979.94
2022-10-06T16:06:00.318Z,101980.25
2022-10-06T16:08:34.133Z,101982.38
2022-10-06T16:11:05.869Z,101983.16
2022-10-06T16:13:38.830Z,101985.91
2022-10-06T16:16:09.100Z,101984.94
2022-10-06T16:18:36.830Z,101990.41
2022-10-06T16:21:13.318Z,101997.66
2022-10-06T16:23:46.390Z,101996.41
2022-10-06T16:26:18.651Z,102000.69
2022-10-06T16:28:55.902Z,102003.00
2022-10-06T16:31:26.428Z,101998.84
2022-10-06T16:33:57.733Z,102002.44
2022-10-06T16:36:36.853Z,101995.91
2022-10-06T16:39:14.491Z,101998.78
2022-10-06T16:41:42.826Z,101999.66
2022-10-06T16:44:13.121Z,102004.56
2022-10-06T16:46:40.998Z,102007.47
2022-10-06T16:49:15.245Z,102004.63
2022-10-06T16:51:52.462Z,102017.53
2022-10-06T16:54:25.929Z,102003.75
2022-10-06T16:56:58.264Z,102012.25
2022-10-06T16:59:29.579Z,102014.28
2022-10-06T17:02:04.888Z,102013.81
2022-10-06T17:04:35.977Z,102015.78
2022-10-06T17:07:09.624Z,102020.63
2022-10-06T17:09:55.850Z,102020.19
2022-10-06T17:12:34.761Z,102031.59
2022-10-06T17:15:08.268Z,102029.50
2022-10-06T17:17:35.926Z,102035.91
2022-10-06T17:20:07.943Z,102042.41
2022-10-06T17:22:42.025Z,102048.91
2022-10-06T17:25:14.247Z,102040.84
2022-10-06T17:27:44.812Z,102055.47
2022-10-06T17:30:23.549Z,102056.28
2022-10-06T17:32:54.335Z,102050.16
2022-10-06T17:35:27.840Z,102053.84
2022-10-06T17:38:00.301Z,102059.84
2022-10-06T17:40:39.068Z,102060.31
2022-10-06T17:43:07.596Z,102061.50
2022-10-06T17:45:41.080Z,102062.34
2022-10-06T17:48:08.832Z,102064.72
2022-10-06T17:50:39.051Z,102063.09
2022-10-06T17:53:09.385Z,102055.00
2022-10-06T17:55:43.406Z,102061.06
2022-10-06T17:58:15.235Z,102059.41
2022-10-06T18:00:46.738Z,102065.06
2022-10-06T18:03:14.357Z,102061.06
2022-10-06T18:05:48.596Z,102063.84
2022-10-06T18:08:23.645Z,102061.81
2022-10-06T18:11:12.375Z,102067.03
2022-10-06T18:13:48.004Z,102065.00
2022-10-06T18:16:18.859Z,102069.03
2022-10-06T18:18:49.728Z,102069.44
2022-10-06T18:21:25.418Z,102070.63
2022-10-06T18:23:58.692Z,102070.53
2022-10-06T18:26:38.387Z,102077.03
2022-10-06T18:29:07.027Z,102065.69
2022-10-06T18:31:38.726Z,102072.94
2022-10-06T18:37:07.768Z,102076.16
2022-10-06T18:39:39.976Z,102074.88
2022-10-06T18:42:13.922Z,102084.72
2022-10-06T18:45:00.260Z,102082.69
2022-10-06T18:47:48.885Z,102084.72
2022-10-06T18:50:19.904Z,102090.78
2022-10-06T18:52:52.289Z,102089.56
2022-10-06T18:55:22.299Z,102092.84
2022-10-06T18:57:53.138Z,102099.69
2022-10-06T19:00:29.617Z,102102.53
2022-10-06T19:03:03.817Z,102104.47
2022-10-06T19:05:35.212Z,102107.31
2022-10-06T19:08:09.426Z,102103.66
2022-10-06T19:10:57.670Z,102107.75
2022-10-06T19:13:28.306Z,102106.94
2022-10-06T19:16:04.633Z,102108.66
2022-10-06T19:18:37.922Z,102106.03
2022-10-06T19:21:09.869Z,102104.13
2022-10-06T19:23:41.369Z,102111.41
2022-10-06T19:26:14.104Z,102110.97
2022-10-06T19:28:44.579Z,102115.44
2022-10-06T19:31:17.965Z,102115.06
2022-10-06T19:33:54.349Z,102122.44
2022-10-06T19:36:29.270Z,102125.59
2022-10-06T19:39:04.909Z,102117.81
2022-10-06T19:41:57.500Z,102124.38
2022-10-06T19:44:26.318Z,102123.09
2022-10-06T19:46:57.199Z,102136.16
2022-10-06T19:49:28.111Z,102124.03
2022-10-06T19:51:56.827Z,102120.28
2022-10-06T19:54:27.970Z,102126.41
2022-10-06T19:57:01.894Z,102128.84
2022-10-06T19:59:36.772Z,102127.13
2022-10-06T20:02:09.685Z,102135.63
2022-10-06T20:04:43.087Z,102132.75
2022-10-06T20:07:13.741Z,102137.19
2022-10-06T20:09:41.578Z,102130.78
2022-10-06T20:12:12.338Z,102133.19
2022-10-06T20:14:42.811Z,102136.25
2022-10-06T20:17:12.970Z,102138.34
2022-10-06T20:19:47.237Z,102139.97
2022-10-06T20:22:21.004Z,102140.41
2022-10-06T20:24:48.687Z,102142.44
2022-10-06T20:27:19.989Z,102139.16
2022-10-06T20:29:48.274Z,102130.25
2022-10-06T20:32:18.935Z,102129.09
2022-10-06T20:34:46.910Z,102130.94
2022-10-06T20:37:25.771Z,102135.03
2022-10-06T20:40:11.564Z,102135.84
2022-10-06T20:42:44.871Z,102141.16
2022-10-06T20:45:15.409Z,102142.38
2022-10-06T20:47:48.672Z,102142.72
2022-10-06T20:50:16.563Z,102141.44
2022-10-06T20:52:47.323Z,102150.34
2022-10-06T20:55:17.786Z,102144.59
2022-10-06T20:57:45.897Z,102142.19
2022-10-06T21:00:22.951Z,102147.13
2022-10-06T21:02:56.429Z,102146.69
2022-10-06T21:05:30.970Z,102144.34
2022-10-06T21:08:02.056Z,102147.56
2022-10-06T21:10:32.113Z,102143.94
2022-10-06T21:12:59.710Z,102148.78
2022-10-06T21:15:30.292Z,102141.44
2022-10-06T21:18:02.406Z,102140.63
2022-10-06T21:20:30.678Z,102134.50
2022-10-06T21:23:03.567Z,102139.00
2022-10-06T21:25:40.427Z,102143.00
2022-10-06T21:28:09.115Z,102135.72
2022-10-06T21:30:44.249Z,102131.31
2022-10-06T21:33:14.841Z,102134.09
2022-10-06T21:35:45.200Z,102138.94
2022-10-06T21:38:14.916Z,102124.31
2022-10-06T21:40:42.624Z,102127.59
2022-10-06T21:43:13.129Z,102124.84
2022-10-06T21:46:17.125Z,102129.22
2022-10-06T21:48:56.065Z,102120.28
2022-10-06T21:51:27.605Z,102119.84
2022-10-06T21:53:58.328Z,102113.13
2022-10-06T21:56:39.851Z,102117.00
2022-10-06T21:59:11.195Z,102110.06
2022-10-06T22:01:41.909Z,102113.66
2022-10-06T22:04:14.320Z,102112.97
2022-10-06T22:06:45.835Z,102112.59
2022-10-06T22:09:16.054Z,102115.75
2022-10-06T22:11:49.244Z,102110.41
2022-10-06T22:14:23.921Z,102108.09
2022-10-06T22:16:54.955Z,102105.09
2022-10-06T22:19:31.670Z,102099.38
2022-10-06T22:22:07.353Z,102096.47
2022-10-06T22:24:34.868Z,102097.06
2022-10-06T22:27:07.958Z,102098.22
2022-10-06T22:29:47.303Z,102091.75
2022-10-06T22:32:23.023Z,102093.91
2022-10-06T22:34:54.104Z,102077.47
2022-10-06T22:37:25.598Z,102085.88
2022-10-06T22:40:02.007Z,102086.81
2022-10-06T22:42:40.585Z,102080.56
2022-10-06T22:45:13.636Z,102083.16
2022-10-06T22:47:46.393Z,102085.06
2022-10-06T22:50:21.181Z,102083.84
2022-10-06T22:52:52.095Z,102075.16
2022-10-06T22:55:23.147Z,102072.31
2022-10-06T22:57:55.987Z,102077.47
2022-10-06T23:00:25.077Z,102074.06
2022-10-06T23:02:55.541Z,102078.69
2022-10-06T23:05:28.869Z,102074.69
2022-10-06T23:08:03.827Z,102068.53
2022-10-06T23:10:37.841Z,102064.06
2022-10-06T23:13:05.187Z,102062.38
2022-10-06T23:15:44.043Z,102062.47
2022-10-06T23:18:19.297Z,102060.19
2022-10-06T23:20:52.470Z,102061.06
2022-10-06T23:23:23.193Z,102054.59
2022-10-06T23:25:54.350Z,102051.09
2022-10-06T23:28:27.002Z,102057.81
2022-10-06T23:30:57.586Z,102051.09
2022-10-06T23:33:29.205Z,102049.09
2022-10-06T23:36:07.962Z,102053.34
2022-10-06T23:38:45.258Z,102058.13
2022-10-06T23:41:18.210Z,102055.31
2022-10-06T23:43:45.637Z,102056.06
2022-10-06T23:46:13.627Z,102054.97
2022-10-06T23:48:47.046Z,102049.19
2022-10-06T23:51:15.542Z,102047.16
2022-10-06T23:53:50.467Z,102051.56
2022-10-06T23:56:21.702Z,102051.88
2022-10-06T23:58:51.413Z,102051.63
